Time;durP1;ratioP1;P1;durP2;ratioP2;P2;SDS_P1;SDS_P2;PMS_P1;PMS_P2;Temp;Humidity;BMP_temperature;BMP_pressure;BME280_temperature;BME280_humidity;BME280_pressure;Samples;Min_cycle;Max_cycle;Signal;HPM_P1;HPM_P2
2021/11/27 00:01:22;;;;;;;8.10;1.98;;;;;;;;;;4347936;33;20309;-69
2021/11/27 00:03:47;;;;;;;;;;;;;;;;;;4348172;33;20418;-70
2021/11/27 00:06:13;;;;;;;9.30;1.40;;;;;;;;;;4347837;33;19939;-70
2021/11/27 00:08:38;;;;;;;;;;;;;;;;;;4349246;33;20054;-70
2021/11/27 00:11:04;;;;;;;5.55;1.65;;;;;;;;;;4358643;32;19978;-70
2021/11/27 00:13:32;;;;;;;5.45;1.52;;;;;;;;;;4349572;32;20051;-70
2021/11/27 00:15:58;;;;;;;9.60;2.58;;;;;;;;;;4361446;32;20085;-70
2021/11/27 00:18:24;;;;;;;;;;;;;;;;;;4362946;32;20091;-70
2021/11/27 00:21:00;;;;;;;7.25;1.83;;;;;;;;;;4361313;32;20218;-70
2021/11/27 00:23:26;;;;;;;7.80;1.80;;;;;;;;;;4363176;32;20023;-70
2021/11/27 00:25:53;;;;;;;7.97;1.87;;;;;;;;;;4362616;32;20071;-70
2021/11/27 00:28:18;;;;;;;8.18;1.73;;;;;;;;;;4348059;33;20362;-70
2021/11/27 00:30:46;;;;;;;;;;;;;;;;;;4363256;32;20101;-70
2021/11/27 00:33:11;;;;;;;;;;;;;;;;;;4361371;32;19946;-70
2021/11/27 00:35:37;;;;;;;7.22;1.50;;;;;;;;;;4361168;32;19974;-70
2021/11/27 00:38:02;;;;;;;;;;;;;;;;;;4361373;32;20421;-70
2021/11/27 00:40:28;;;;;;;6.28;1.85;;;;;;;;;;4358701;32;19954;-70
2021/11/27 00:42:54;;;;;;;;;;;;;;;;;;4348054;33;20090;-70
2021/11/27 00:45:20;;;;;;;5.72;1.70;;;;;;;;;;4347443;33;20001;-70
2021/11/27 00:47:45;;;;;;;;;;;;;;;;;;4347625;33;20036;-70
2021/11/27 00:50:11;;;;;;;8.05;1.62;;;;;;;;;;4347017;33;20874;-70
2021/11/27 00:52:37;;;;;;;4.30;1.33;;;;;;;;;;4347028;33;20411;-70
2021/11/27 00:55:02;;;;;;;;;;;;;;;;;;4361347;32;20031;-70
2021/11/27 00:57:27;;;;;;;3.90;1.35;;;;;;;;;;4357785;32;19953;-70
2021/11/27 00:59:52;;;;;;;;;;;;;;;;;;4348334;33;20606;-70
2021/11/27 01:02:18;;;;;;;10.73;1.85;;;;;;;;;;4347580;33;19934;-70
2021/11/27 01:04:43;;;;;;;;;;;;;;;;;;4346872;33;20099;-69
2021/11/27 01:07:09;;;;;;;3.00;1.52;;;;;;;;;;4347275;33;19949;-70
2021/11/27 01:09:35;;;;;;;6.05;1.58;;;;;;;;;;4334910;33;20171;-70
2021/11/27 01:12:00;;;;;;;;;;;;;;;;;;4347586;33;20409;-70
2021/11/27 01:14:26;;;;;;;12.82;3.05;;;;;;;;;;4347104;33;20218;-69
2021/11/27 01:16:59;;;;;;;5.70;1.40;;;;;;;;;;4346612;33;20482;-70
2021/11/27 01:19:26;;;;;;;11.48;3.72;;;;;;;;;;4361087;32;20430;-69
2021/11/27 01:21:53;;;;;;;6.22;2.20;;;;;;;;;;4351640;32;20520;-69
2021/11/27 01:24:19;;;;;;;4.82;1.85;;;;;;;;;;4361785;32;20089;-70
2021/11/27 01:26:44;;;;;;;;;;;;;;;;;;4361924;32;20393;-69
2021/11/27 01:29:09;;;;;;;6.76;1.80;;;;;;;;;;4360107;32;19962;-69
2021/11/27 01:31:34;;;;;;;;;;;;;;;;;;4361230;32;20035;-69
2021/11/27 01:34:00;;;;;;;8.25;1.83;;;;;;;;;;4361683;32;19938;-69
2021/11/27 01:36:25;;;;;;;;;;;;;;;;;;4361517;32;20151;-70
2021/11/27 01:38:53;;;;;;;6.32;2.33;;;;;;;;;;4360941;32;20347;-70
2021/11/27 01:41:39;;;;;;;3.70;1.60;;;;;;;;;;4360886;32;20027;-69
2021/11/27 01:44:05;;;;;;;5.15;1.80;;;;;;;;;;4360894;33;20070;-69
2021/11/27 01:46:31;;;;;;;5.35;1.67;;;;;;;;;;4361826;32;20063;-70
2021/11/27 01:48:56;;;;;;;;;;;;;;;;;;4360053;32;20031;-69
2021/11/27 01:51:22;;;;;;;3.95;1.62;;;;;;;;;;4359950;32;19977;-69
2021/11/27 01:53:52;;;;;;;6.47;2.08;;;;;;;;;;4360650;32;20031;-69
2021/11/27 01:56:22;;;;;;;4.75;1.50;;;;;;;;;;4360630;32;20061;-69
2021/11/27 01:58:48;;;;;;;3.97;1.37;;;;;;;;;;4361399;32;20074;-69
2021/11/27 02:01:13;;;;;;;;;;;;;;;;;;4360855;32;20039;-69
2021/11/27 02:03:38;;;;;;;6.80;1.55;;;;;;;;;;4360593;32;19981;-69
2021/11/27 02:06:03;;;;;;;;;;;;;;;;;;4354384;33;20198;-69
2021/11/27 02:08:29;;;;;;;2.72;2.17;;;;;;;;;;4358211;32;19950;-69
2021/11/27 02:10:54;;;;;;;;;;;;;;;;;;4352383;33;20105;-69
2021/11/27 02:13:19;;;;;;;2.10;1.04;;;;;;;;;;4355292;32;19954;-69
2021/11/27 02:15:44;;;;;;;;;;;;;;;;;;4359211;32;20032;-69
2021/11/27 02:18:10;;;;;;;2.20;1.10;;;;;;;;;;4359273;32;20005;-69
2021/11/27 02:20:35;;;;;;;;;;;;;;;;;;4362370;32;20093;-69
2021/11/27 02:23:00;;;;;;;2.56;0.76;;;;;;;;;;4360687;32;19946;-69
2021/11/27 02:25:26;;;;;;;;;;;;;;;;;;4360626;32;20444;-69
2021/11/27 02:27:52;;;;;;;3.62;1.00;;;;;;;;;;4361182;32;20378;-69
2021/11/27 02:30:17;;;;;;;;;;;;;;;;;;4358235;32;20090;-69
2021/11/27 02:32:42;;;;;;;7.70;1.40;;;;;;;;;;4356333;32;19950;-69
2021/11/27 02:35:07;;;;;;;;;;;;;;;;;;4360823;32;20113;-69
2021/11/27 02:37:33;;;;;;;9.02;2.28;;;;;;;;;;4359649;32;20246;-69
2021/11/27 02:39:58;;;;;;;;;;;;;;;;;;4360427;32;20053;-69
2021/11/27 02:42:24;;;;;;;4.20;1.10;;;;;;;;;;4359219;33;19974;-70
2021/11/27 02:44:49;;;;;;;;;;;;;;;;;;4360619;32;20031;-70
2021/11/27 02:47:35;;;;;;;;;;;;;;;;;;;;;
2021/11/27 02:50:02;;;;;;;4.57;1.83;;;;;;;;;;4360326;32;20132;-70
2021/11/27 02:52:29;;;;;;;3.17;1.50;;;;;;;;;;4360344;33;20054;-69
2021/11/27 02:54:54;;;;;;;5.22;1.70;;;;;;;;;;4360346;33;20097;-69
2021/11/27 02:57:19;;;;;;;;;;;;;;;;;;4360490;33;20058;-69
2021/11/27 02:59:45;;;;;;;5.03;2.00;;;;;;;;;;4359138;32;19970;-70
2021/11/27 03:02:11;;;;;;;;;;;;;;;;;;4363383;32;20173;-70
2021/11/27 03:04:37;;;;;;;5.45;1.65;;;;;;;;;;4363983;32;19988;-70
2021/11/27 03:07:02;;;;;;;;;;;;;;;;;;4363753;32;20027;-70
2021/11/27 03:09:27;;;;;;;5.18;2.12;;;;;;;;;;4363490;33;19939;-70
2021/11/27 03:11:52;;;;;;;;;;;;;;;;;;4364326;32;20043;-70
2021/11/27 03:14:30;;;;;;;5.62;2.20;;;;;;;;;;4363080;32;19958;-70
2021/11/27 03:16:56;;;;;;;4.68;2.00;;;;;;;;;;4362940;32;20035;-70
2021/11/27 03:19:22;;;;;;;6.07;2.60;;;;;;;;;;4349398;33;20050;-70
2021/11/27 03:21:47;;;;;;;;;;;;;;;;;;4363576;32;20023;-70
2021/11/27 03:24:12;;;;;;;8.13;4.47;;;;;;;;;;4363261;33;20279;-70
2021/11/27 03:26:37;;;;;;;;;;;;;;;;;;4364062;32;20061;-70
2021/11/27 03:29:03;;;;;;;8.90;3.95;;;;;;;;;;4362542;32;19945;-70
2021/11/27 03:31:29;;;;;;;;;;;;;;;;;;4362272;32;20480;-70
2021/11/27 03:33:54;;;;;;;10.15;4.28;;;;;;;;;;4363483;32;19977;-70
2021/11/27 03:36:19;;;;;;;;;;;;;;;;;;4362717;32;20047;-70
2021/11/27 03:38:45;;;;;;;5.22;3.42;;;;;;;;;;4362947;32;19966;-70
2021/11/27 03:41:10;;;;;;;;;;;;;;;;;;4364666;32;20144;-70
2021/11/27 03:43:36;;;;;;;8.90;3.80;;;;;;;;;;4359774;33;20008;-70
2021/11/27 03:46:02;;;;;;;12.35;4.43;;;;;;;;;;4363057;32;20207;-70
2021/11/27 03:48:27;;;;;;;;;;;;;;;;;;4362466;32;20027;-70
2021/11/27 03:50:53;;;;;;;10.28;4.90;;;;;;;;;;4360756;32;19942;-69
2021/11/27 03:53:18;;;;;;;;;;;;;;;;;;4360932;32;20056;-70
2021/11/27 03:55:43;;;;;;;8.95;5.55;;;;;;;;;;4355814;32;20353;-70
2021/11/27 03:58:09;;;;;;;;;;;;;;;;;;4355132;32;20087;-70
2021/11/27 04:00:35;;;;;;;9.35;5.32;;;;;;;;;;4353354;32;20052;-70
2021/11/27 04:03:00;;;;;;;;;;;;;;;;;;4354137;32;20132;-70
2021/11/27 04:05:25;;;;;;;12.82;5.10;;;;;;;;;;4352787;32;20301;-70
2021/11/27 04:07:50;;;;;;;;;;;;;;;;;;4350640;32;20084;-70
2021/11/27 04:10:16;;;;;;;11.88;5.90;;;;;;;;;;4356725;32;19942;-69
2021/11/27 04:12:41;;;;;;;;;;;;;;;;;;4362502;32;20128;-69
2021/11/27 04:15:06;;;;;;;9.98;5.53;;;;;;;;;;4361178;32;19957;-69
2021/11/27 04:17:31;;;;;;;;;;;;;;;;;;4347689;33;20031;-70
2021/11/27 04:19:57;;;;;;;8.65;5.97;;;;;;;;;;4361880;33;19964;-69
2021/11/27 04:22:22;;;;;;;;;;;;;;;;;;4362170;32;20238;-69
2021/11/27 04:24:47;;;;;;;11.80;6.75;;;;;;;;;;4361697;32;19958;-69
2021/11/27 04:27:12;;;;;;;;;;;;;;;;;;4362144;32;20187;-70
2021/11/27 04:29:37;;;;;;;10.25;6.72;;;;;;;;;;4362125;32;19935;-69
2021/11/27 04:32:03;;;;;;;;;;;;;;;;;;4360975;33;20028;-69
2021/11/27 04:34:28;;;;;;;9.94;6.76;;;;;;;;;;4361140;32;20080;-69
2021/11/27 04:36:53;;;;;;;;;;;;;;;;;;4362406;32;20343;-70
2021/11/27 04:39:18;;;;;;;10.85;6.60;;;;;;;;;;4362115;32;19959;-70
2021/11/27 04:41:43;;;;;;;;;;;;;;;;;;4360081;32;20205;-69
2021/11/27 04:44:09;;;;;;;14.20;8.32;;;;;;;;;;4347020;33;19969;-70
2021/11/27 04:46:34;;;;;;;;;;;;;;;;;;4347881;33;20197;-70
2021/11/27 04:48:59;;;;;;;14.86;8.24;;;;;;;;;;4347704;33;19935;-70
2021/11/27 04:51:24;;;;;;;;;;;;;;;;;;4347021;33;20097;-70
2021/11/27 04:53:50;;;;;;;17.08;8.18;;;;;;;;;;4347704;33;19943;-70
2021/11/27 04:56:15;;;;;;;;;;;;;;;;;;4333789;33;20066;-70
2021/11/27 04:58:40;;;;;;;13.93;7.82;;;;;;;;;;4347097;33;19963;-70
2021/11/27 05:01:06;;;;;;;;;;;;;;;;;;4346779;33;20116;-70
2021/11/27 05:03:31;;;;;;;14.20;6.95;;;;;;;;;;4333850;33;20269;-70
2021/11/27 05:05:56;;;;;;;;;;;;;;;;;;4347193;33;20050;-70
2021/11/27 05:08:22;;;;;;;10.93;7.55;;;;;;;;;;4358546;32;19947;-69
2021/11/27 05:10:47;;;;;;;;;;;;;;;;;;4362361;32;20031;-69
2021/11/27 05:13:13;;;;;;;14.87;7.30;;;;;;;;;;4361208;32;19934;-68
2021/11/27 05:15:38;;;;;;;;;;;;;;;;;;4363214;32;20451;-69
2021/11/27 05:18:04;;;;;;;11.57;8.13;;;;;;;;;;4361134;33;19934;-69
2021/11/27 05:20:29;;;;;;;;;;;;;;;;;;4361809;32;20131;-69
2021/11/27 05:22:55;;;;;;;11.50;8.43;;;;;;;;;;4361268;32;20331;-69
2021/11/27 05:25:20;;;;;;;;;;;;;;;;;;4361354;32;20413;-69
2021/11/27 05:27:45;;;;;;;15.77;9.68;;;;;;;;;;4360351;33;20403;-69
2021/11/27 05:30:10;;;;;;;;;;;;;;;;;;4361425;33;20128;-69
2021/11/27 05:35:01;;;;;;;;;;;;;;;;;;4362153;32;20413;-69
2021/11/27 05:37:28;;;;;;;16.85;11.57;;;;;;;;;;4361497;32;20009;-71
2021/11/27 05:39:54;;;;;;;21.05;11.90;;;;;;;;;;4360756;32;20430;-70
2021/11/27 05:42:19;;;;;;;;;;;;;;;;;;4361095;32;20031;-69
2021/11/27 05:44:45;;;;;;;19.32;11.58;;;;;;;;;;4357606;32;19993;-70
2021/11/27 05:47:11;;;;;;;19.17;13.20;;;;;;;;;;4361143;32;20141;-70
2021/11/27 05:49:36;;;;;;;;;;;;;;;;;;4361789;32;20027;-69
2021/11/27 05:52:02;;;;;;;17.20;12.43;;;;;;;;;;4357869;32;20293;-70
2021/11/27 05:54:27;;;;;;;;;;;;;;;;;;4355430;32;20514;-70
2021/11/27 05:56:52;;;;;;;25.77;14.45;;;;;;;;;;4359311;33;19994;-72
2021/11/27 05:59:17;;;;;;;;;;;;;;;;;;4361099;32;20143;-70
2021/11/27 06:01:42;;;;;;;31.85;18.83;;;;;;;;;;4358451;32;19998;-70
2021/11/27 06:04:07;;;;;;;;;;;;;;;;;;4359803;32;20132;-70
2021/11/27 06:06:33;;;;;;;30.12;17.05;;;;;;;;;;4360398;32;19939;-70
2021/11/27 06:09:00;;;;;;;;;;;;;;;;;;4361177;32;20485;-70
2021/11/27 06:11:25;;;;;;;34.13;19.33;;;;;;;;;;4360254;32;19994;-69
2021/11/27 06:13:50;;;;;;;;;;;;;;;;;;4361078;33;20031;-70
2021/11/27 06:16:25;;;;;;;31.60;20.05;;;;;;;;;;4360218;33;19966;-69
2021/11/27 06:18:50;;;;;;;30.67;21.20;;;;;;;;;;4359264;32;20477;-69
2021/11/27 06:21:20;;;;;;;;;;;;;;;;;;4360263;32;20031;-71
2021/11/27 06:23:45;;;;;;;30.67;20.40;;;;;;;;;;4351844;33;19972;-68
2021/11/27 06:26:10;;;;;;;;;;;;;;;;;;4361426;32;20039;-69
2021/11/27 06:28:37;;;;;;;30.77;21.90;;;;;;;;;;4361493;32;19948;-70
2021/11/27 06:31:03;;;;;;;36.00;23.15;;;;;;;;;;4346617;33;20075;-70
2021/11/27 06:33:28;;;;;;;;;;;;;;;;;;4360509;32;20081;-70
2021/11/27 06:35:53;;;;;;;40.50;25.90;;;;;;;;;;4360323;32;20300;-70
2021/11/27 06:38:20;;;;;;;;;;;;;;;;;;4360254;32;20036;-69
2021/11/27 06:40:45;;;;;;;44.00;28.30;;;;;;;;;;4361650;32;19958;-69
2021/11/27 06:43:10;;;;;;;;;;;;;;;;;;4360581;32;20070;-71
2021/11/27 06:45:35;;;;;;;46.80;28.75;;;;;;;;;;4360603;32;20313;-69
2021/11/27 06:48:00;;;;;;;;;;;;;;;;;;4360505;32;20123;-70
2021/11/27 06:50:26;;;;;;;49.20;28.58;;;;;;;;;;4360378;32;19935;-68
2021/11/27 06:52:51;;;;;;;;;;;;;;;;;;4359876;33;20427;-70
2021/11/27 06:55:16;;;;;;;40.14;28.58;;;;;;;;;;4361565;32;19943;-71
2021/11/27 06:57:41;;;;;;;;;;;;;;;;;;4360180;33;20139;-70
2021/11/27 07:00:07;;;;;;;42.30;26.62;;;;;;;;;;4360354;33;19935;-70
2021/11/27 07:02:33;;;;;;;;;;;;;;;;;;4360913;33;20424;-70
2021/11/27 07:04:58;;;;;;;43.05;25.95;;;;;;;;;;4360319;33;19949;-69
2021/11/27 07:07:23;;;;;;;;;;;;;;;;;;4361479;33;20091;-69
2021/11/27 07:09:51;;;;;;;36.65;24.33;;;;;;;;;;4360164;33;19947;-69
2021/11/27 07:12:16;;;;;;;42.72;27.50;;;;;;;;;;4360305;33;20497;-70
2021/11/27 07:14:43;;;;;;;;;;;;;;;;;;4359769;33;20027;-70
2021/11/27 07:17:11;;;;;;;45.20;27.77;;;;;;;;;;4361139;33;19976;-69
2021/11/27 07:19:36;;;;;;;48.30;29.95;;;;;;;;;;4361423;33;20474;-70
2021/11/27 07:22:01;;;;;;;;;;;;;;;;;;4361797;33;20035;-70
2021/11/27 07:24:27;;;;;;;48.70;31.85;;;;;;;;;;4361030;33;19942;-69
2021/11/27 07:26:52;;;;;;;;;;;;;;;;;;4361662;33;20031;-69
2021/11/27 07:29:17;;;;;;;50.58;30.92;;;;;;;;;;4359697;33;19976;-70
2021/11/27 07:31:42;;;;;;;;;;;;;;;;;;4360430;33;20157;-69
2021/11/27 07:34:08;;;;;;;56.15;32.42;;;;;;;;;;4359966;33;19934;-70
2021/11/27 07:36:33;;;;;;;;;;;;;;;;;;4360210;33;20250;-70
2021/11/27 07:39:01;;;;;;;49.62;29.92;;;;;;;;;;4359879;33;20327;-69
2021/11/27 07:41:27;;;;;;;50.92;30.05;;;;;;;;;;4346107;33;20032;-70
2021/11/27 07:43:52;;;;;;;;;;;;;;;;;;4359788;33;20051;-70
2021/11/27 07:46:18;;;;;;;50.94;29.84;;;;;;;;;;4360441;32;19934;-70
2021/11/27 07:48:44;;;;;;;55.38;32.00;;;;;;;;;;4362717;33;20397;-69
2021/11/27 07:51:12;;;;;;;;;;;;;;;;;;4361904;32;20027;-70
2021/11/27 07:53:37;;;;;;;62.55;33.92;;;;;;;;;;4361501;32;19943;-69
2021/11/27 07:56:02;;;;;;;;;;;;;;;;;;4361834;33;20384;-70
2021/11/27 07:58:28;;;;;;;59.76;32.44;;;;;;;;;;4360758;32;20256;-68
2021/11/27 08:00:53;;;;;;;;;;;;;;;;;;4347915;33;20028;-69
2021/11/27 08:03:18;;;;;;;58.72;33.28;;;;;;;;;;4334174;33;19945;-69
2021/11/27 08:05:43;;;;;;;;;;;;;;;;;;4335449;33;20410;-69
2021/11/27 08:08:09;;;;;;;66.82;35.22;;;;;;;;;;4353476;33;19942;-69
2021/11/27 08:10:34;;;;;;;;;;;;;;;;;;4362476;32;20154;-69
2021/11/27 08:12:59;;;;;;;72.03;36.92;;;;;;;;;;4361785;33;20309;-70
2021/11/27 08:15:24;;;;;;;;;;;;;;;;;;4348557;33;20178;-70
2021/11/27 08:17:50;;;;;;;68.97;38.25;;;;;;;;;;4348862;33;19977;-70
2021/11/27 08:20:15;;;;;;;;;;;;;;;;;;4348578;33;20490;-70
2021/11/27 08:22:41;;;;;;;73.46;37.30;;;;;;;;;;4359344;32;20383;-71
2021/11/27 08:25:06;;;;;;;;;;;;;;;;;;4362320;32;20090;-69
2021/11/27 08:27:31;;;;;;;77.30;40.74;;;;;;;;;;4362762;32;19935;-70
2021/11/27 08:29:57;;;;;;;;;;;;;;;;;;4348875;33;20026;-69
2021/11/27 08:32:22;;;;;;;81.47;39.95;;;;;;;;;;4363033;32;19938;-70
2021/11/27 08:34:48;;;;;;;;;;;;;;;;;;4360844;32;20031;-70
2021/11/27 08:37:13;;;;;;;70.95;37.17;;;;;;;;;;4359995;32;19977;-69
2021/11/27 08:39:38;;;;;;;;;;;;;;;;;;4359969;32;20082;-69
2021/11/27 08:42:04;;;;;;;90.15;44.92;;;;;;;;;;4362424;32;19993;-69
2021/11/27 08:44:29;;;;;;;;;;;;;;;;;;4348269;33;20485;-70
2021/11/27 08:46:54;;;;;;;77.80;41.22;;;;;;;;;;4362105;32;19946;-70
2021/11/27 08:49:19;;;;;;;;;;;;;;;;;;4362227;32;20405;-69
2021/11/27 08:51:44;;;;;;;94.55;45.63;;;;;;;;;;4362918;32;19949;-69
2021/11/27 08:54:09;;;;;;;;;;;;;;;;;;4362182;32;20124;-70
2021/11/27 08:56:35;;;;;;;86.35;42.97;;;;;;;;;;4360557;32;19957;-69
2021/11/27 08:59:00;;;;;;;;;;;;;;;;;;4361801;32;20053;-70
2021/11/27 09:01:26;;;;;;;86.82;44.35;;;;;;;;;;4361196;33;19966;-68
2021/11/27 09:03:51;;;;;;;;;;;;;;;;;;4348444;33;20114;-69
2021/11/27 09:06:16;;;;;;;91.70;46.67;;;;;;;;;;4360430;32;19976;-66
2021/11/27 09:08:41;;;;;;;;;;;;;;;;;;4360964;32;20057;-68
2021/11/27 09:11:07;;;;;;;97.60;47.33;;;;;;;;;;4362168;32;19934;-70
2021/11/27 09:13:32;;;;;;;;;;;;;;;;;;4361668;32;20143;-70
2021/11/27 09:15:58;;;;;;;100.32;48.42;;;;;;;;;;4361418;32;19954;-70
2021/11/27 09:18:23;;;;;;;;;;;;;;;;;;4347349;33;20128;-70
2021/11/27 09:24:10;;;;;;;107.95;50.47;;;;;;;;;;4297712;33;20040;-69
2021/11/27 09:26:37;;;;;;;;;;;;;;;;;;4335114;33;20113;-71
2021/11/27 09:29:02;;;;;;;97.57;47.55;;;;;;;;;;4361095;32;19938;-70
2021/11/27 09:31:30;;;;;;;;;;;;;;;;;;4362169;32;20444;-70
2021/11/27 09:33:56;;;;;;;94.13;45.22;;;;;;;;;;4361735;32;20000;-70
2021/11/27 09:36:22;;;;;;;;;;;;;;;;;;4359301;32;20438;-70
2021/11/27 09:39:06;;;;;;;78.40;39.08;;;;;;;;;;4360483;32;20301;-69
2021/11/27 09:41:35;;;;;;;60.30;30.17;;;;;;;;;;4360999;32;20089;-70
2021/11/27 09:44:05;;;;;;;62.83;30.25;;;;;;;;;;4361095;32;20031;-70
2021/11/27 09:46:34;;;;;;;66.78;30.75;;;;;;;;;;4360813;32;20096;-70
2021/11/27 09:49:00;;;;;;;67.78;35.55;;;;;;;;;;4361035;32;20031;-71
2021/11/27 09:51:27;;;;;;;52.60;25.85;;;;;;;;;;4361163;32;20424;-70
2021/11/27 09:54:17;;;;;;;70.47;35.28;;;;;;;;;;4360416;32;20058;-70
2021/11/27 09:56:43;;;;;;;61.88;32.63;;;;;;;;;;4345560;33;20027;-70
2021/11/27 09:59:14;;;;;;;73.12;36.33;;;;;;;;;;4358604;32;20096;-70
2021/11/27 10:01:45;;;;;;;73.12;36.35;;;;;;;;;;4357505;32;20051;-70
2021/11/27 10:04:11;;;;;;;67.07;33.30;;;;;;;;;;4360085;32;20074;-69
2021/11/27 10:06:36;;;;;;;;;;;;;;;;;;4360791;33;20027;-69
2021/11/27 10:09:03;;;;;;;59.15;29.25;;;;;;;;;;4355725;32;19942;-69
2021/11/27 10:11:28;;;;;;;46.25;24.77;;;;;;;;;;4361191;32;20109;-69
2021/11/27 10:13:53;;;;;;;;;;;;;;;;;;4362355;32;20406;-69
2021/11/27 10:16:19;;;;;;;53.55;20.60;;;;;;;;;;4345287;32;19942;-71
2021/11/27 10:18:53;;;;;;;;;;;;;;;;;;4346525;33;20431;-71
2021/11/27 10:21:20;;;;;;;45.00;18.90;;;;;;;;;;4345850;33;19949;-69
2021/11/27 10:23:46;;;;;;;43.85;19.70;;;;;;;;;;4346150;33;20063;-70
2021/11/27 10:26:11;;;;;;;;;;;;;;;;;;4345759;33;20401;-70
2021/11/27 10:28:39;;;;;;;41.95;17.73;;;;;;;;;;4346037;33;19951;-70
2021/11/27 10:31:05;;;;;;;43.53;16.83;;;;;;;;;;4346019;33;20107;-70
2021/11/27 10:33:30;;;;;;;;;;;;;;;;;;4331744;33;20031;-70
2021/11/27 10:36:01;;;;;;;46.90;15.27;;;;;;;;;;4358433;32;19961;-70
2021/11/27 10:38:40;;;;;;;35.08;11.95;;;;;;;;;;4360694;32;20031;-70
2021/11/27 10:41:06;;;;;;;40.92;13.35;;;;;;;;;;4360249;32;20083;-70
2021/11/27 10:43:34;;;;;;;;;;;;;;;;;;4359541;32;20381;-70
2021/11/27 10:46:33;;;;;;;42.13;13.73;;;;;;;;;;4358580;32;19953;-70
2021/11/27 10:48:58;;;;;;;41.90;13.75;;;;;;;;;;4361459;32;20031;-70
2021/11/27 10:51:23;;;;;;;;;;;;;;;;;;4358690;32;20057;-71
2021/11/27 10:53:53;;;;;;;37.53;14.02;;;;;;;;;;4357812;33;20222;-70
2021/11/27 10:56:18;;;;;;;35.47;13.18;;;;;;;;;;4360416;32;20077;-71
2021/11/27 10:58:43;;;;;;;;;;;;;;;;;;4359698;33;20036;-70
2021/11/27 11:01:08;;;;;;;33.55;13.93;;;;;;;;;;4361506;33;19943;-69
2021/11/27 11:03:41;;;;;;;;;;;;;;;;;;4360596;33;20174;-71
2021/11/27 11:06:18;;;;;;;35.97;13.62;;;;;;;;;;4361274;32;19939;-70
2021/11/27 11:08:44;;;;;;;39.30;13.55;;;;;;;;;;4359979;33;20057;-71
2021/11/27 11:11:11;;;;;;;;;;;;;;;;;;4360195;33;20440;-70
2021/11/27 11:13:36;;;;;;;44.00;14.07;;;;;;;;;;4360647;32;20227;-71
2021/11/27 11:16:02;;;;;;;;;;;;;;;;;;4360864;33;20054;-70
2021/11/27 11:18:27;;;;;;;34.67;13.18;;;;;;;;;;4360261;33;19930;-70
2021/11/27 11:20:53;;;;;;;;;;;;;;;;;;4361514;32;20323;-71
2021/11/27 11:23:24;;;;;;;43.63;13.13;;;;;;;;;;4363721;32;19953;-70
2021/11/27 11:25:54;;;;;;;49.00;17.42;;;;;;;;;;4363445;32;20088;-70
2021/11/27 11:28:26;;;;;;;39.33;13.02;;;;;;;;;;4362897;32;20342;-70
2021/11/27 11:31:00;;;;;;;45.65;13.35;;;;;;;;;;4361772;33;20057;-70
2021/11/27 11:33:25;;;;;;;37.00;13.10;;;;;;;;;;4361782;33;20085;-70
2021/11/27 11:35:50;;;;;;;;;;;;;;;;;;4367643;32;20050;-69
2021/11/27 11:38:21;;;;;;;23.02;7.82;;;;;;;;;;4378085;32;19944;-71
2021/11/27 11:40:52;;;;;;;29.35;8.45;;;;;;;;;;4376992;32;20040;-69
2021/11/27 11:43:17;;;;;;;23.17;6.05;;;;;;;;;;4377970;32;20069;-70
2021/11/27 11:45:42;;;;;;;;;;;;;;;;;;4377701;32;20425;-69
2021/11/27 11:48:08;;;;;;;25.23;7.55;;;;;;;;;;4377743;32;19949;-70
2021/11/27 11:50:33;;;;;;;;;;;;;;;;;;4377498;32;20080;-70
2021/11/27 11:53:01;;;;;;;22.40;5.80;;;;;;;;;;4372565;32;19938;-69
2021/11/27 11:55:27;;;;;;;24.40;5.93;;;;;;;;;;4362435;32;20054;-70
2021/11/27 11:57:52;;;;;;;;;;;;;;;;;;4362985;32;20377;-70
2021/11/27 12:00:29;;;;;;;16.80;4.90;;;;;;;;;;4346898;33;19942;-69
2021/11/27 12:03:07;;;;;;;19.45;5.03;;;;;;;;;;4349040;33;20315;-69
2021/11/27 12:05:34;;;;;;;14.57;5.90;;;;;;;;;;4357660;33;20085;-69
2021/11/27 12:08:02;;;;;;;17.67;6.07;;;;;;;;;;4347293;32;20047;-69
2021/11/27 12:10:28;;;;;;;17.62;5.78;;;;;;;;;;4349314;33;20027;-69
2021/11/27 12:13:05;;;;;;;19.05;5.37;;;;;;;;;;4362586;32;20087;-69
2021/11/27 12:15:34;;;;;;;24.80;5.87;;;;;;;;;;4362470;32;20400;-69
2021/11/27 12:18:12;;;;;;;17.83;5.78;;;;;;;;;;4362639;32;20028;-70
2021/11/27 12:20:54;;;;;;;27.02;6.95;;;;;;;;;;4362578;32;20487;-71
2021/11/27 12:23:25;;;;;;;19.98;6.32;;;;;;;;;;4362699;32;20054;-70
2021/11/27 12:26:11;;;;;;;25.02;7.90;;;;;;;;;;4362040;32;20027;-71
2021/11/27 12:28:43;;;;;;;19.45;6.18;;;;;;;;;;4362807;32;20031;-70
2021/11/27 12:31:11;;;;;;;19.35;6.40;;;;;;;;;;4361960;32;20069;-70
2021/11/27 12:33:44;;;;;;;25.40;7.15;;;;;;;;;;4362240;32;20083;-70
2021/11/27 12:36:24;;;;;;;19.42;7.07;;;;;;;;;;4345575;33;20072;-70
2021/11/27 12:38:55;;;;;;;26.35;7.25;;;;;;;;;;4347068;32;20023;-70
2021/11/27 12:41:40;;;;;;;17.05;5.90;;;;;;;;;;4346042;33;20357;-71
2021/11/27 12:44:32;;;;;;;22.17;6.78;;;;;;;;;;4347068;32;20458;-70
2021/11/27 12:47:06;;;;;;;21.40;6.70;;;;;;;;;;4323537;33;20090;-70
2021/11/27 12:49:42;;;;;;;26.00;6.68;;;;;;;;;;4347018;33;20027;-70
2021/11/27 12:52:10;;;;;;;20.15;6.47;;;;;;;;;;4346923;33;20378;-70
2021/11/27 12:54:35;;;;;;;21.60;7.03;;;;;;;;;;4346917;33;20059;-70
2021/11/27 12:57:01;;;;;;;;;;;;;;;;;;4347729;33;20307;-71
2021/11/27 12:59:26;;;;;;;28.58;7.25;;;;;;;;;;4347291;33;19939;-70
2021/11/27 13:01:54;;;;;;;;;;;;;;;;;;4346881;32;20023;-69
2021/11/27 13:04:20;;;;;;;26.25;9.57;;;;;;;;;;4346754;33;20343;-70
2021/11/27 13:06:46;;;;;;;;;;;;;;;;;;4336860;33;20501;-70
2021/11/27 13:09:12;;;;;;;28.40;8.82;;;;;;;;;;4340284;33;19998;-69
2021/11/27 13:11:43;;;;;;;31.90;9.75;;;;;;;;;;4343213;33;20115;-70
2021/11/27 13:14:08;;;;;;;30.98;6.87;;;;;;;;;;4342331;33;20066;-69
2021/11/27 13:16:33;;;;;;;;;;;;;;;;;;4346791;33;20039;-70
2021/11/27 13:18:59;;;;;;;32.53;8.15;;;;;;;;;;4345232;33;20344;-70
2021/11/27 13:21:26;;;;;;;;;;;;;;;;;;4347256;32;20097;-69
2021/11/27 13:23:52;;;;;;;30.27;8.93;;;;;;;;;;4346674;33;20273;-69
2021/11/27 13:26:18;;;;;;;;;;;;;;;;;;4346823;32;20028;-69
2021/11/27 13:28:49;;;;;;;28.95;9.13;;;;;;;;;;4345963;33;19954;-69
2021/11/27 13:31:29;;;;;;;28.42;8.98;;;;;;;;;;4347095;33;20422;-69
2021/11/27 13:34:03;;;;;;;29.67;10.13;;;;;;;;;;4346057;32;20035;-70
2021/11/27 13:36:28;;;;;;;30.12;10.55;;;;;;;;;;4355485;32;20055;-70
2021/11/27 13:38:53;;;;;;;;;;;;;;;;;;4361754;32;20049;-69
2021/11/27 13:41:25;;;;;;;22.58;8.60;;;;;;;;;;4361526;32;19949;-70
2021/11/27 13:43:53;;;;;;;24.45;8.63;;;;;;;;;;4361012;32;20311;-70
2021/11/27 13:46:18;;;;;;;20.60;6.87;;;;;;;;;;4360931;33;20031;-70
2021/11/27 13:48:43;;;;;;;;;;;;;;;;;;4359756;32;20405;-70
2021/11/27 13:51:18;;;;;;;32.35;10.90;;;;;;;;;;4360357;33;20305;-70
2021/11/27 13:53:43;;;;;;;23.83;8.10;;;;;;;;;;4361410;32;20131;-69
2021/11/27 13:56:08;;;;;;;;;;;;;;;;;;4356065;32;20028;-70
2021/11/27 13:58:34;;;;;;;29.45;12.40;;;;;;;;;;4346353;33;19950;-69
2021/11/27 14:01:00;;;;;;;;;;;;;;;;;;4346103;33;20358;-70
2021/11/27 14:03:30;;;;;;;17.02;7.68;;;;;;;;;;4351878;33;19970;-70
2021/11/27 14:05:55;;;;;;;14.05;6.00;;;;;;;;;;4358591;32;20067;-70
2021/11/27 14:08:20;;;;;;;;;;;;;;;;;;4360642;32;20081;-70
2021/11/27 14:10:58;;;;;;;15.52;5.80;;;;;;;;;;4358603;32;19942;-69
2021/11/27 14:13:23;;;;;;;15.73;5.40;;;;;;;;;;4360763;32;20114;-69
2021/11/27 14:15:48;;;;;;;;;;;;;;;;;;4361084;33;20027;-69
2021/11/27 14:18:26;;;;;;;19.46;6.34;;;;;;;;;;4346282;32;19938;-70
2021/11/27 14:20:52;;;;;;;10.25;4.50;;;;;;;;;;4345756;33;20070;-69
2021/11/27 14:23:31;;;;;;;16.08;5.72;;;;;;;;;;4345560;33;20032;-70
2021/11/27 14:26:04;;;;;;;16.60;5.40;;;;;;;;;;4346785;33;20073;-71
2021/11/27 14:28:31;;;;;;;12.85;4.28;;;;;;;;;;4345760;33;20358;-69
2021/11/27 14:31:05;;;;;;;11.50;3.83;;;;;;;;;;4332142;33;20349;-70
2021/11/27 14:33:32;;;;;;;12.02;3.78;;;;;;;;;;4346395;33;20402;-70
2021/11/27 14:36:08;;;;;;;11.25;3.75;;;;;;;;;;4346049;33;20043;-69
2021/11/27 14:38:40;;;;;;;9.50;3.05;;;;;;;;;;4348941;33;20078;-71
2021/11/27 14:41:14;;;;;;;13.55;4.53;;;;;;;;;;4358888;32;20141;-69
2021/11/27 14:43:57;;;;;;;12.27;2.75;;;;;;;;;;4360427;32;20089;-71
2021/11/27 14:46:27;;;;;;;6.62;2.42;;;;;;;;;;4360269;33;20030;-70
2021/11/27 14:48:52;;;;;;;9.10;3.05;;;;;;;;;;4360529;32;20110;-71
2021/11/27 14:51:17;;;;;;;;;;;;;;;;;;4361421;32;20063;-70
2021/11/27 14:53:42;;;;;;;6.50;2.67;;;;;;;;;;4360454;32;20009;-70
2021/11/27 14:56:07;;;;;;;;;;;;;;;;;;4360021;32;20135;-70
2021/11/27 14:58:33;;;;;;;8.60;2.53;;;;;;;;;;4361112;32;20288;-70
2021/11/27 15:00:59;;;;;;;;;;;;;;;;;;4359922;33;20132;-70
2021/11/27 15:03:24;;;;;;;7.68;2.80;;;;;;;;;;4360514;32;19961;-69
2021/11/27 15:05:49;;;;;;;;;;;;;;;;;;4359925;33;20085;-70
2021/11/27 15:08:15;;;;;;;4.25;2.08;;;;;;;;;;4360908;33;19938;-70
2021/11/27 15:10:51;;;;;;;;;;;;;;;;;;4360184;33;20140;-70
2021/11/27 15:13:17;;;;;;;5.90;2.20;;;;;;;;;;4360984;33;19945;-70
2021/11/27 15:15:43;;;;;;;7.05;2.72;;;;;;;;;;4359576;33;20062;-70
2021/11/27 15:18:08;;;;;;;;;;;;;;;;;;4340249;33;20381;-71
2021/11/27 15:20:33;;;;;;;6.65;3.37;;;;;;;;;;4355934;33;19934;-71